createdAt,value
2022-07-29T00:01:42.601Z,16.10
2022-07-29T00:05:24.686Z,16.00
2022-07-29T00:09:06.780Z,16.00
2022-07-29T00:12:48.800Z,15.90
2022-07-29T00:16:30.934Z,15.80
2022-07-29T00:20:13.048Z,15.70
2022-07-29T00:23:54.975Z,15.70
2022-07-29T00:27:37.887Z,15.60
2022-07-29T00:31:19.931Z,15.50
2022-07-29T00:35:20.371Z,15.40
2022-07-29T00:39:02.358Z,15.30
2022-07-29T00:42:51.797Z,15.20
2022-07-29T00:46:33.769Z,15.10
2022-07-29T00:50:16.021Z,15.00
2022-07-29T00:53:58.062Z,14.90
2022-07-29T00:57:41.308Z,14.80
2022-07-29T01:01:23.359Z,14.70
2022-07-29T01:05:07.464Z,14.70
2022-07-29T01:08:50.474Z,14.60
2022-07-29T01:12:34.647Z,14.50
2022-07-29T01:16:45.172Z,14.50
2022-07-29T01:20:56.826Z,14.50
2022-07-29T01:24:52.980Z,14.40
2022-07-29T01:29:09.588Z,14.40
2022-07-29T01:33:02.651Z,14.30
2022-07-29T01:36:52.751Z,14.20
2022-07-29T01:40:45.271Z,14.20
2022-07-29T01:44:38.794Z,14.20
2022-07-29T01:48:28.734Z,14.20
2022-07-29T01:52:20.032Z,14.20
2022-07-29T01:56:04.077Z,14.20
2022-07-29T01:59:48.584Z,14.20
2022-07-29T02:03:33.527Z,14.10
2022-07-29T02:07:20.323Z,14.10
2022-07-29T02:11:03.301Z,14.10
2022-07-29T02:14:49.162Z,14.10
2022-07-29T02:18:32.211Z,14.00
2022-07-29T02:22:15.452Z,14.00
2022-07-29T02:26:00.152Z,14.00
2022-07-29T02:29:42.697Z,14.00
2022-07-29T02:33:25.409Z,14.00
2022-07-29T02:37:10.462Z,14.00
2022-07-29T02:40:54.645Z,14.00
2022-07-29T02:44:37.224Z,14.00
2022-07-29T02:48:21.111Z,14.10
2022-07-29T02:52:07.927Z,14.10
2022-07-29T02:55:59.981Z,14.10
2022-07-29T02:59:45.970Z,14.10
2022-07-29T03:03:36.954Z,14.20
2022-07-29T03:07:21.988Z,14.20
2022-07-29T03:11:05.807Z,14.20
2022-07-29T03:14:48.101Z,14.10
2022-07-29T03:18:31.695Z,14.10
2022-07-29T03:22:14.747Z,14.10
2022-07-29T03:25:57.442Z,14.00
2022-07-29T03:29:39.388Z,14.00
2022-07-29T03:33:21.818Z,14.00
2022-07-29T03:37:04.383Z,14.00
2022-07-29T03:40:54.035Z,14.00
2022-07-29T03:44:38.634Z,13.90
2022-07-29T03:48:24.846Z,13.90
2022-07-29T03:52:07.374Z,13.80
2022-07-29T03:55:55.784Z,13.80
2022-07-29T03:59:39.000Z,13.70
2022-07-29T04:03:21.564Z,13.60
2022-07-29T04:07:04.758Z,13.60
2022-07-29T04:10:46.802Z,13.60
2022-07-29T04:14:28.792Z,13.50
2022-07-29T04:18:10.845Z,13.50
2022-07-29T04:21:53.004Z,13.40
2022-07-29T04:25:37.781Z,13.40
2022-07-29T04:29:19.763Z,13.40
2022-07-29T04:33:03.339Z,13.40
2022-07-29T04:36:45.341Z,13.40
2022-07-29T04:40:27.294Z,13.40
2022-07-29T04:44:09.246Z,13.40
2022-07-29T04:47:51.711Z,13.30
2022-07-29T04:51:33.638Z,13.30
2022-07-29T04:55:15.590Z,13.30
2022-07-29T04:58:57.707Z,13.30
2022-07-29T05:02:39.756Z,13.30
2022-07-29T05:06:21.779Z,13.30
2022-07-29T05:10:04.216Z,13.30
2022-07-29T05:13:47.036Z,13.30
2022-07-29T05:17:29.226Z,13.30
2022-07-29T05:21:11.326Z,13.30
2022-07-29T05:24:53.274Z,13.20
2022-07-29T05:28:36.323Z,13.30
2022-07-29T05:32:19.133Z,13.40
2022-07-29T05:36:01.311Z,13.40
2022-07-29T05:39:48.484Z,13.50
2022-07-29T05:43:32.360Z,13.60
2022-07-29T05:47:14.700Z,13.80
2022-07-29T05:50:56.707Z,13.80
2022-07-29T05:54:38.757Z,13.90
2022-07-29T05:58:21.367Z,13.90
2022-07-29T06:02:03.362Z,14.00
2022-07-29T06:05:45.540Z,14.00
2022-07-29T06:09:27.454Z,14.10
2022-07-29T06:13:09.404Z,14.30
2022-07-29T06:16:51.713Z,14.40
2022-07-29T06:20:33.681Z,14.50
2022-07-29T06:24:16.937Z,14.70
2022-07-29T06:27:59.486Z,14.90
2022-07-29T06:31:41.462Z,15.20
2022-07-29T06:35:42.043Z,15.40
2022-07-29T06:39:24.926Z,15.70
2022-07-29T06:43:07.172Z,15.90
2022-07-29T06:46:51.079Z,16.20
2022-07-29T06:50:33.162Z,16.50
2022-07-29T06:54:15.358Z,16.80
2022-07-29T06:57:57.438Z,17.20
2022-07-29T07:01:43.973Z,17.60
2022-07-29T07:05:25.884Z,17.90
2022-07-29T07:09:08.024Z,18.40
2022-07-29T07:12:50.037Z,18.70
2022-07-29T07:16:33.043Z,19.00
2022-07-29T07:20:15.319Z,19.20
2022-07-29T07:23:57.266Z,19.40
2022-07-29T07:27:39.586Z,19.60
2022-07-29T07:31:21.690Z,19.80
2022-07-29T07:35:07.010Z,20.00
2022-07-29T07:38:49.074Z,20.20
2022-07-29T07:42:31.077Z,20.40
2022-07-29T07:46:13.159Z,20.70
2022-07-29T07:49:55.200Z,20.90
2022-07-29T07:53:37.219Z,21.10
2022-07-29T07:57:19.201Z,21.40
2022-07-29T08:01:01.159Z,21.70
2022-07-29T08:04:43.192Z,21.90
2022-07-29T08:08:25.170Z,22.10
2022-07-29T08:12:07.330Z,22.20
2022-07-29T08:15:58.451Z,22.40
2022-07-29T08:19:40.883Z,22.50
2022-07-29T08:23:24.093Z,22.50
2022-07-29T08:27:26.972Z,22.60
2022-07-29T08:31:09.668Z,22.80
2022-07-29T08:34:51.647Z,23.10
2022-07-29T08:38:33.797Z,23.60
2022-07-29T08:42:17.733Z,24.00
2022-07-29T08:45:59.716Z,24.40
2022-07-29T08:49:41.918Z,24.70
2022-07-29T08:53:27.430Z,24.90
2022-07-29T08:57:10.278Z,25.10
2022-07-29T09:00:57.993Z,25.40
2022-07-29T09:04:40.863Z,25.70
2022-07-29T09:08:24.029Z,26.00
2022-07-29T09:12:07.466Z,26.20
2022-07-29T09:15:49.775Z,26.40
2022-07-29T09:19:35.898Z,26.80
2022-07-29T09:23:24.334Z,27.10
2022-07-29T09:27:24.565Z,27.40
2022-07-29T09:31:08.039Z,27.60
2022-07-29T09:34:50.105Z,27.90
2022-07-29T09:38:32.592Z,28.10
2022-07-29T09:42:16.020Z,28.30
2022-07-29T09:46:14.751Z,28.70
2022-07-29T09:49:59.369Z,29.20
2022-07-29T09:53:42.205Z,29.70
2022-07-29T09:57:31.077Z,30.20
2022-07-29T10:01:13.762Z,30.70
2022-07-29T10:04:56.332Z,31.30
2022-07-29T10:08:39.054Z,31.70
2022-07-29T10:12:21.067Z,32.20
2022-07-29T10:16:03.441Z,32.60
2022-07-29T10:19:45.527Z,33.20
2022-07-29T10:23:29.027Z,33.90
2022-07-29T10:27:28.685Z,34.50
2022-07-29T10:31:28.319Z,35.10
2022-07-29T10:35:23.115Z,35.70
2022-07-29T10:43:51.359Z,36.60
2022-07-29T10:47:35.206Z,37.10
2022-07-29T10:51:18.062Z,37.60
2022-07-29T10:55:01.412Z,37.90
2022-07-29T10:58:52.736Z,38.10
2022-07-29T11:02:41.016Z,38.20
2022-07-29T11:06:28.096Z,38.00
2022-07-29T11:10:16.441Z,37.60
2022-07-29T11:13:58.544Z,37.60
2022-07-29T11:17:59.699Z,38.10
2022-07-29T11:21:53.466Z,38.90
2022-07-29T11:25:51.071Z,39.50
2022-07-29T11:29:41.284Z,39.80
2022-07-29T11:33:54.292Z,40.30
2022-07-29T11:37:35.085Z,40.40
2022-07-29T11:41:30.462Z,40.70
2022-07-29T11:45:42.592Z,40.90
2022-07-29T11:49:32.506Z,41.30
2022-07-29T11:57:18.395Z,41.00
2022-07-29T12:01:04.302Z,40.90
2022-07-29T12:04:55.201Z,40.90
2022-07-29T12:08:43.735Z,40.30
2022-07-29T12:12:26.409Z,39.50
2022-07-29T12:16:08.610Z,39.40
2022-07-29T12:19:50.947Z,39.60
2022-07-29T12:23:34.416Z,39.80
2022-07-29T12:27:19.226Z,40.00
2022-07-29T12:31:43.847Z,40.10
2022-07-29T12:35:22.175Z,40.30
2022-07-29T12:39:05.483Z,40.60
2022-07-29T12:43:13.811Z,41.00
2022-07-29T12:47:05.273Z,41.30
2022-07-29T12:51:01.265Z,41.40
2022-07-29T12:54:48.581Z,41.10
2022-07-29T12:58:34.990Z,41.00
2022-07-29T13:02:23.607Z,41.20
2022-07-29T13:06:05.639Z,41.20
2022-07-29T13:09:47.806Z,41.00
2022-07-29T13:13:29.804Z,40.80
2022-07-29T13:17:24.068Z,40.40
2022-07-29T13:21:13.888Z,40.20
2022-07-29T13:24:58.061Z,40.20
2022-07-29T13:28:40.952Z,40.30
2022-07-29T13:32:28.807Z,40.40
2022-07-29T13:36:10.870Z,40.40
2022-07-29T13:39:53.534Z,40.50
2022-07-29T13:43:35.667Z,40.60
2022-07-29T13:47:18.010Z,40.70
2022-07-29T13:51:00.342Z,40.90
2022-07-29T13:54:42.849Z,40.80
2022-07-29T13:58:24.950Z,40.90
2022-07-29T14:02:07.101Z,40.90
2022-07-29T14:05:49.155Z,40.90
2022-07-29T14:09:40.915Z,40.20
2022-07-29T14:13:25.391Z,39.60
2022-07-29T14:17:08.413Z,39.60
2022-07-29T14:20:50.657Z,39.60
2022-07-29T14:24:32.785Z,39.40
2022-07-29T14:28:18.983Z,39.40
2022-07-29T14:32:01.422Z,38.90
2022-07-29T14:35:44.681Z,38.40
2022-07-29T14:39:26.643Z,37.90
2022-07-29T14:43:14.874Z,37.70
2022-07-29T14:46:56.910Z,37.80
2022-07-29T14:50:39.253Z,38.00
2022-07-29T14:54:21.307Z,37.90
2022-07-29T14:58:09.898Z,37.00
2022-07-29T15:01:53.278Z,36.10
2022-07-29T15:05:36.001Z,35.40
2022-07-29T15:09:17.987Z,34.60
2022-07-29T15:12:59.980Z,33.80
2022-07-29T15:16:44.060Z,33.00
2022-07-29T15:20:30.183Z,32.60
2022-07-29T15:24:12.315Z,32.60
2022-07-29T15:27:57.770Z,33.20
2022-07-29T15:31:43.225Z,34.00
2022-07-29T15:35:25.521Z,34.30
2022-07-29T15:39:07.583Z,34.60
2022-07-29T15:42:49.743Z,34.70
2022-07-29T15:46:50.150Z,34.70
2022-07-29T15:50:32.069Z,34.20
2022-07-29T15:54:14.149Z,33.40
2022-07-29T15:58:00.295Z,32.70
2022-07-29T16:01:42.698Z,32.50
2022-07-29T16:05:25.067Z,32.60
2022-07-29T16:09:07.258Z,32.20
2022-07-29T16:12:49.151Z,31.60
2022-07-29T16:16:31.375Z,31.00
2022-07-29T16:20:13.871Z,30.40
2022-07-29T16:23:56.066Z,29.90
2022-07-29T16:27:38.416Z,29.60
2022-07-29T16:31:23.027Z,29.20
2022-07-29T16:35:05.732Z,29.00
2022-07-29T16:38:48.159Z,28.80
2022-07-29T16:42:46.115Z,28.50
2022-07-29T16:46:28.388Z,28.20
2022-07-29T16:50:10.376Z,28.00
2022-07-29T16:53:52.330Z,27.90
2022-07-29T16:57:34.361Z,27.90
2022-07-29T17:01:17.222Z,27.90
2022-07-29T17:04:59.292Z,27.90
2022-07-29T17:08:44.572Z,27.80
2022-07-29T17:12:27.573Z,27.80
2022-07-29T17:16:09.559Z,27.70
2022-07-29T17:19:51.484Z,27.70
2022-07-29T17:23:33.440Z,27.60
2022-07-29T17:27:15.876Z,27.60
2022-07-29T17:30:58.012Z,27.50
2022-07-29T17:34:41.731Z,27.40
2022-07-29T17:38:23.700Z,27.30
2022-07-29T17:42:06.492Z,27.10
2022-07-29T17:45:48.748Z,27.00
2022-07-29T17:49:31.385Z,26.80
2022-07-29T17:53:15.978Z,26.70
2022-07-29T17:56:58.577Z,26.50
2022-07-29T18:00:42.309Z,26.40
2022-07-29T18:04:25.062Z,26.30
2022-07-29T18:08:07.251Z,26.10
2022-07-29T18:11:49.232Z,25.90
2022-07-29T18:15:31.562Z,25.70
2022-07-29T18:19:13.586Z,25.60
2022-07-29T18:22:55.555Z,25.40
2022-07-29T18:26:38.410Z,25.30
2022-07-29T18:30:20.616Z,25.10
2022-07-29T18:34:02.532Z,24.90
2022-07-29T18:38:01.010Z,24.80
2022-07-29T18:41:49.860Z,24.80
2022-07-29T18:45:32.806Z,24.70
2022-07-29T18:49:15.006Z,24.60
2022-07-29T18:52:58.931Z,24.50
2022-07-29T18:56:41.223Z,24.50
2022-07-29T19:00:24.034Z,24.50
2022-07-29T19:04:06.087Z,24.40
2022-07-29T19:07:48.060Z,24.40
2022-07-29T19:11:30.078Z,24.30
2022-07-29T19:15:12.126Z,24.20
2022-07-29T19:18:54.235Z,24.10
2022-07-29T19:22:38.152Z,24.00
2022-07-29T19:26:20.927Z,23.80
2022-07-29T19:30:05.248Z,23.70
2022-07-29T19:33:47.169Z,23.60
2022-07-29T19:37:29.178Z,23.40
2022-07-29T19:41:13.017Z,23.40
2022-07-29T19:44:55.045Z,23.30
2022-07-29T19:48:37.099Z,23.20
2022-07-29T19:52:19.253Z,23.20
2022-07-29T19:56:01.257Z,23.10
2022-07-29T19:59:44.251Z,23.00
2022-07-29T20:03:26.260Z,23.00
2022-07-29T20:07:08.307Z,22.90
2022-07-29T20:10:50.233Z,22.80
2022-07-29T20:14:32.163Z,22.60
2022-07-29T20:18:15.781Z,22.50
2022-07-29T20:21:57.778Z,22.40
2022-07-29T20:25:39.826Z,22.20
2022-07-29T20:29:22.305Z,22.10
2022-07-29T20:33:04.330Z,22.00
2022-07-29T20:36:46.462Z,21.80
2022-07-29T20:40:29.363Z,21.80
2022-07-29T20:44:11.274Z,21.70
2022-07-29T20:47:53.511Z,21.50
2022-07-29T20:51:43.427Z,21.40
2022-07-29T20:55:25.966Z,21.40
2022-07-29T20:59:09.050Z,21.30
2022-07-29T21:02:51.694Z,21.20
2022-07-29T21:06:34.734Z,21.10
2022-07-29T21:10:18.381Z,21.00
2022-07-29T21:14:01.561Z,20.90
2022-07-29T21:17:47.143Z,20.80
2022-07-29T21:21:29.256Z,20.80
2022-07-29T21:25:12.202Z,20.70
2022-07-29T21:28:54.150Z,20.60
2022-07-29T21:32:36.139Z,20.50
2022-07-29T21:40:20.427Z,20.30
2022-07-29T21:44:02.396Z,20.20
2022-07-29T21:47:44.344Z,20.10
2022-07-29T21:51:26.294Z,20.10
2022-07-29T21:55:10.579Z,19.90
2022-07-29T21:58:53.602Z,19.90
2022-07-29T22:02:35.514Z,19.80
2022-07-29T22:06:17.836Z,19.80
2022-07-29T22:10:00.225Z,19.70
2022-07-29T22:13:42.176Z,19.60
2022-07-29T22:17:26.654Z,19.50
2022-07-29T22:21:08.617Z,19.50
2022-07-29T22:24:50.931Z,19.40
2022-07-29T22:28:33.001Z,19.30
2022-07-29T22:32:14.931Z,19.30
2022-07-29T22:35:56.883Z,19.20
2022-07-29T22:39:39.042Z,19.10
2022-07-29T22:43:20.992Z,19.10
2022-07-29T22:47:04.799Z,18.90
2022-07-29T22:50:46.806Z,18.90
2022-07-29T22:54:28.754Z,18.80
2022-07-29T22:58:10.959Z,18.80
2022-07-29T23:01:52.920Z,18.70
2022-07-29T23:05:34.954Z,18.70
2022-07-29T23:09:17.059Z,18.60
2022-07-29T23:12:59.027Z,18.60
2022-07-29T23:16:41.085Z,18.60
2022-07-29T23:20:23.154Z,18.60
2022-07-29T23:24:05.133Z,18.50
2022-07-29T23:27:47.134Z,18.50
2022-07-29T23:31:29.050Z,18.40
2022-07-29T23:35:11.208Z,18.40
2022-07-29T23:38:55.255Z,18.30
2022-07-29T23:42:37.218Z,18.30
2022-07-29T23:46:19.198Z,18.20
2022-07-29T23:50:07.637Z,18.10
2022-07-29T23:53:53.328Z,18.10
2022-07-29T23:57:36.138Z,18.00
